sensor_id;sensor_type;location;lat;lon;timestamp;P1;durP1;ratioP1;P2;durP2;ratioP2
6344;SDS011;3205;42.666;23.264;2024-02-15T00:00:10;15.13;;;8.43;;
6344;SDS011;3205;42.666;23.264;2024-02-15T00:02:37;11.63;;;7.23;;
6344;SDS011;3205;42.666;23.264;2024-02-15T00:05:04;9.13;;;6.73;;
6344;SDS011;3205;42.666;23.264;2024-02-15T00:07:31;12.40;;;7.43;;
6344;SDS011;3205;42.666;23.264;2024-02-15T00:09:57;9.33;;;7.27;;
6344;SDS011;3205;42.666;23.264;2024-02-15T00:12:24;9.57;;;6.37;;
6344;SDS011;3205;42.666;23.264;2024-02-15T00:14:50;10.00;;;6.87;;
6344;SDS011;3205;42.666;23.264;2024-02-15T00:17:16;10.83;;;7.30;;
6344;SDS011;3205;42.666;23.264;2024-02-15T00:19:44;14.60;;;8.20;;
6344;SDS011;3205;42.666;23.264;2024-02-15T00:22:11;12.10;;;7.77;;
6344;SDS011;3205;42.666;23.264;2024-02-15T00:24:38;11.80;;;7.23;;
6344;SDS011;3205;42.666;23.264;2024-02-15T00:27:05;15.40;;;8.10;;
6344;SDS011;3205;42.666;23.264;2024-02-15T00:29:31;10.17;;;6.90;;
6344;SDS011;3205;42.666;23.264;2024-02-15T00:31:59;10.97;;;7.00;;
6344;SDS011;3205;42.666;23.264;2024-02-15T00:34:25;10.13;;;7.37;;
6344;SDS011;3205;42.666;23.264;2024-02-15T00:36:52;16.73;;;8.27;;
6344;SDS011;3205;42.666;23.264;2024-02-15T00:39:18;15.57;;;8.57;;
6344;SDS011;3205;42.666;23.264;2024-02-15T00:41:45;17.60;;;9.13;;
6344;SDS011;3205;42.666;23.264;2024-02-15T00:44:11;17.43;;;7.67;;
6344;SDS011;3205;42.666;23.264;2024-02-15T00:46:38;12.77;;;7.77;;
6344;SDS011;3205;42.666;23.264;2024-02-15T00:49:06;15.60;;;7.73;;
6344;SDS011;3205;42.666;23.264;2024-02-15T00:51:33;11.97;;;7.97;;
6344;SDS011;3205;42.666;23.264;2024-02-15T00:54:01;12.47;;;7.57;;
6344;SDS011;3205;42.666;23.264;2024-02-15T00:56:28;13.53;;;7.70;;
6344;SDS011;3205;42.666;23.264;2024-02-15T00:58:56;10.43;;;7.10;;
6344;SDS011;3205;42.666;23.264;2024-02-15T01:01:22;13.00;;;8.03;;
6344;SDS011;3205;42.666;23.264;2024-02-15T01:03:48;14.17;;;7.20;;
6344;SDS011;3205;42.666;23.264;2024-02-15T01:06:14;10.57;;;7.30;;
6344;SDS011;3205;42.666;23.264;2024-02-15T01:08:41;10.47;;;6.80;;
6344;SDS011;3205;42.666;23.264;2024-02-15T01:11:08;11.73;;;6.87;;
6344;SDS011;3205;42.666;23.264;2024-02-15T01:13:34;14.03;;;7.20;;
6344;SDS011;3205;42.666;23.264;2024-02-15T01:16:01;10.37;;;6.87;;
6344;SDS011;3205;42.666;23.264;2024-02-15T01:18:28;12.90;;;7.50;;
6344;SDS011;3205;42.666;23.264;2024-02-15T01:20:55;9.20;;;7.03;;
6344;SDS011;3205;42.666;23.264;2024-02-15T01:23:21;8.97;;;6.60;;
6344;SDS011;3205;42.666;23.264;2024-02-15T01:25:47;8.87;;;6.77;;
6344;SDS011;3205;42.666;23.264;2024-02-15T01:28:14;11.03;;;7.60;;
6344;SDS011;3205;42.666;23.264;2024-02-15T01:30:40;12.20;;;6.90;;
6344;SDS011;3205;42.666;23.264;2024-02-15T01:33:08;10.97;;;7.03;;
6344;SDS011;3205;42.666;23.264;2024-02-15T01:35:35;13.00;;;7.10;;
6344;SDS011;3205;42.666;23.264;2024-02-15T01:38:02;9.13;;;7.07;;
6344;SDS011;3205;42.666;23.264;2024-02-15T01:40:28;8.10;;;6.60;;
6344;SDS011;3205;42.666;23.264;2024-02-15T01:42:55;11.17;;;6.47;;
6344;SDS011;3205;42.666;23.264;2024-02-15T01:45:24;11.33;;;6.67;;
6344;SDS011;3205;42.666;23.264;2024-02-15T01:47:50;8.10;;;6.60;;
6344;SDS011;3205;42.666;23.264;2024-02-15T01:50:17;11.77;;;7.20;;
6344;SDS011;3205;42.666;23.264;2024-02-15T01:52:45;16.40;;;8.70;;
6344;SDS011;3205;42.666;23.264;2024-02-15T01:55:13;17.03;;;8.47;;
6344;SDS011;3205;42.666;23.264;2024-02-15T01:57:40;11.30;;;7.67;;
6344;SDS011;3205;42.666;23.264;2024-02-15T02:00:11;10.10;;;6.77;;
6344;SDS011;3205;42.666;23.264;2024-02-15T02:02:41;13.17;;;6.97;;
6344;SDS011;3205;42.666;23.264;2024-02-15T02:05:09;12.33;;;7.33;;
6344;SDS011;3205;42.666;23.264;2024-02-15T02:07:36;10.87;;;7.20;;
6344;SDS011;3205;42.666;23.264;2024-02-15T02:10:03;11.23;;;7.80;;
6344;SDS011;3205;42.666;23.264;2024-02-15T02:12:30;11.37;;;7.97;;
6344;SDS011;3205;42.666;23.264;2024-02-15T02:14:57;16.10;;;7.53;;
6344;SDS011;3205;42.666;23.264;2024-02-15T02:17:24;10.73;;;7.33;;
6344;SDS011;3205;42.666;23.264;2024-02-15T02:19:51;14.67;;;7.27;;
6344;SDS011;3205;42.666;23.264;2024-02-15T02:22:17;13.63;;;8.60;;
6344;SDS011;3205;42.666;23.264;2024-02-15T02:24:54;12.90;;;7.87;;
6344;SDS011;3205;42.666;23.264;2024-02-15T02:27:23;11.43;;;7.00;;
6344;SDS011;3205;42.666;23.264;2024-02-15T02:29:52;10.13;;;7.97;;
6344;SDS011;3205;42.666;23.264;2024-02-15T02:32:18;11.00;;;7.53;;
6344;SDS011;3205;42.666;23.264;2024-02-15T02:34:44;11.23;;;7.27;;
6344;SDS011;3205;42.666;23.264;2024-02-15T02:37:11;14.47;;;8.40;;
6344;SDS011;3205;42.666;23.264;2024-02-15T02:39:39;24.90;;;11.57;;
6344;SDS011;3205;42.666;23.264;2024-02-15T02:42:06;22.10;;;10.10;;
6344;SDS011;3205;42.666;23.264;2024-02-15T02:44:33;11.43;;;7.40;;
6344;SDS011;3205;42.666;23.264;2024-02-15T02:46:59;11.47;;;7.03;;
6344;SDS011;3205;42.666;23.264;2024-02-15T02:49:26;13.20;;;8.17;;
6344;SDS011;3205;42.666;23.264;2024-02-15T02:51:53;15.50;;;8.00;;
6344;SDS011;3205;42.666;23.264;2024-02-15T02:54:19;14.00;;;7.97;;
6344;SDS011;3205;42.666;23.264;2024-02-15T02:56:46;12.47;;;8.50;;
6344;SDS011;3205;42.666;23.264;2024-02-15T02:59:13;11.43;;;7.47;;
6344;SDS011;3205;42.666;23.264;2024-02-15T03:05:03;10.70;;;7.17;;
6344;SDS011;3205;42.666;23.264;2024-02-15T03:07:32;15.03;;;8.33;;
6344;SDS011;3205;42.666;23.264;2024-02-15T03:09:59;13.33;;;7.70;;
6344;SDS011;3205;42.666;23.264;2024-02-15T03:12:25;19.20;;;9.67;;
6344;SDS011;3205;42.666;23.264;2024-02-15T03:14:52;17.27;;;8.57;;
6344;SDS011;3205;42.666;23.264;2024-02-15T03:17:20;13.87;;;9.00;;
6344;SDS011;3205;42.666;23.264;2024-02-15T03:19:46;15.07;;;8.37;;
6344;SDS011;3205;42.666;23.264;2024-02-15T03:22:14;14.63;;;9.20;;
6344;SDS011;3205;42.666;23.264;2024-02-15T03:24:40;11.93;;;8.50;;
6344;SDS011;3205;42.666;23.264;2024-02-15T03:27:07;23.77;;;10.20;;
6344;SDS011;3205;42.666;23.264;2024-02-15T03:29:35;16.57;;;9.27;;
6344;SDS011;3205;42.666;23.264;2024-02-15T03:32:02;29.70;;;12.33;;
6344;SDS011;3205;42.666;23.264;2024-02-15T03:34:31;15.07;;;8.70;;
6344;SDS011;3205;42.666;23.264;2024-02-15T03:36:58;20.70;;;11.07;;
6344;SDS011;3205;42.666;23.264;2024-02-15T03:39:24;17.23;;;9.33;;
6344;SDS011;3205;42.666;23.264;2024-02-15T03:41:50;24.53;;;11.07;;
6344;SDS011;3205;42.666;23.264;2024-02-15T03:44:18;14.07;;;9.87;;
6344;SDS011;3205;42.666;23.264;2024-02-15T03:46:45;14.07;;;9.27;;
6344;SDS011;3205;42.666;23.264;2024-02-15T03:49:16;15.80;;;9.87;;
6344;SDS011;3205;42.666;23.264;2024-02-15T03:51:43;18.27;;;9.80;;
6344;SDS011;3205;42.666;23.264;2024-02-15T03:54:10;15.73;;;8.77;;
6344;SDS011;3205;42.666;23.264;2024-02-15T03:56:36;15.33;;;8.07;;
6344;SDS011;3205;42.666;23.264;2024-02-15T03:59:02;15.70;;;9.47;;
6344;SDS011;3205;42.666;23.264;2024-02-15T04:01:30;11.27;;;8.20;;
6344;SDS011;3205;42.666;23.264;2024-02-15T04:03:59;15.53;;;8.47;;
6344;SDS011;3205;42.666;23.264;2024-02-15T04:06:27;13.30;;;8.30;;
6344;SDS011;3205;42.666;23.264;2024-02-15T04:08:56;18.90;;;8.87;;
6344;SDS011;3205;42.666;23.264;2024-02-15T04:11:22;17.10;;;9.07;;
6344;SDS011;3205;42.666;23.264;2024-02-15T04:13:48;15.47;;;8.30;;
6344;SDS011;3205;42.666;23.264;2024-02-15T04:16:14;10.87;;;7.97;;
6344;SDS011;3205;42.666;23.264;2024-02-15T04:18:41;13.80;;;8.60;;
6344;SDS011;3205;42.666;23.264;2024-02-15T04:21:10;23.03;;;9.90;;
6344;SDS011;3205;42.666;23.264;2024-02-15T04:23:37;12.43;;;8.67;;
6344;SDS011;3205;42.666;23.264;2024-02-15T04:26:04;14.83;;;9.67;;
6344;SDS011;3205;42.666;23.264;2024-02-15T04:28:30;12.60;;;8.30;;
6344;SDS011;3205;42.666;23.264;2024-02-15T04:30:58;15.73;;;8.93;;
6344;SDS011;3205;42.666;23.264;2024-02-15T04:33:25;22.43;;;9.40;;
6344;SDS011;3205;42.666;23.264;2024-02-15T04:35:51;17.40;;;8.53;;
6344;SDS011;3205;42.666;23.264;2024-02-15T04:38:17;14.73;;;9.13;;
6344;SDS011;3205;42.666;23.264;2024-02-15T04:40:45;14.63;;;8.80;;
6344;SDS011;3205;42.666;23.264;2024-02-15T04:43:11;20.03;;;8.77;;
6344;SDS011;3205;42.666;23.264;2024-02-15T04:45:38;17.33;;;9.80;;
6344;SDS011;3205;42.666;23.264;2024-02-15T04:48:04;14.90;;;8.53;;
6344;SDS011;3205;42.666;23.264;2024-02-15T04:50:32;59.33;;;21.20;;
6344;SDS011;3205;42.666;23.264;2024-02-15T04:52:58;18.17;;;11.03;;
6344;SDS011;3205;42.666;23.264;2024-02-15T04:55:25;12.80;;;8.30;;
6344;SDS011;3205;42.666;23.264;2024-02-15T04:57:55;13.60;;;8.40;;
6344;SDS011;3205;42.666;23.264;2024-02-15T05:00:22;13.70;;;8.50;;
6344;SDS011;3205;42.666;23.264;2024-02-15T05:02:50;14.20;;;9.00;;
6344;SDS011;3205;42.666;23.264;2024-02-15T05:05:17;20.13;;;9.77;;
6344;SDS011;3205;42.666;23.264;2024-02-15T05:07:43;17.63;;;9.03;;
6344;SDS011;3205;42.666;23.264;2024-02-15T05:10:10;16.17;;;9.17;;
6344;SDS011;3205;42.666;23.264;2024-02-15T05:12:37;14.67;;;9.23;;
6344;SDS011;3205;42.666;23.264;2024-02-15T05:15:06;24.13;;;9.17;;
6344;SDS011;3205;42.666;23.264;2024-02-15T05:17:35;19.43;;;9.87;;
6344;SDS011;3205;42.666;23.264;2024-02-15T05:20:02;17.00;;;8.40;;
6344;SDS011;3205;42.666;23.264;2024-02-15T05:22:35;13.83;;;9.17;;
6344;SDS011;3205;42.666;23.264;2024-02-15T05:25:02;15.40;;;8.07;;
6344;SDS011;3205;42.666;23.264;2024-02-15T05:27:30;15.50;;;8.87;;
6344;SDS011;3205;42.666;23.264;2024-02-15T05:29:57;12.57;;;8.13;;
6344;SDS011;3205;42.666;23.264;2024-02-15T05:32:24;13.23;;;8.87;;
6344;SDS011;3205;42.666;23.264;2024-02-15T05:34:51;19.77;;;9.73;;
6344;SDS011;3205;42.666;23.264;2024-02-15T05:37:20;13.10;;;8.63;;
6344;SDS011;3205;42.666;23.264;2024-02-15T05:39:46;13.60;;;8.60;;
6344;SDS011;3205;42.666;23.264;2024-02-15T05:42:16;15.60;;;8.90;;
6344;SDS011;3205;42.666;23.264;2024-02-15T05:44:42;18.20;;;9.73;;
6344;SDS011;3205;42.666;23.264;2024-02-15T05:47:09;20.20;;;8.73;;
6344;SDS011;3205;42.666;23.264;2024-02-15T05:49:37;13.20;;;8.87;;
6344;SDS011;3205;42.666;23.264;2024-02-15T05:52:04;17.70;;;8.27;;
6344;SDS011;3205;42.666;23.264;2024-02-15T05:54:30;15.23;;;8.80;;
6344;SDS011;3205;42.666;23.264;2024-02-15T05:56:56;20.90;;;8.80;;
6344;SDS011;3205;42.666;23.264;2024-02-15T05:59:25;13.30;;;8.90;;
6344;SDS011;3205;42.666;23.264;2024-02-15T06:01:52;14.33;;;8.73;;
6344;SDS011;3205;42.666;23.264;2024-02-15T06:04:18;12.97;;;7.97;;
6344;SDS011;3205;42.666;23.264;2024-02-15T06:06:45;18.63;;;8.33;;
6344;SDS011;3205;42.666;23.264;2024-02-15T06:09:13;12.83;;;8.33;;
6344;SDS011;3205;42.666;23.264;2024-02-15T06:11:40;16.63;;;8.87;;
6344;SDS011;3205;42.666;23.264;2024-02-15T06:14:06;19.67;;;9.47;;
6344;SDS011;3205;42.666;23.264;2024-02-15T06:16:32;16.77;;;8.07;;
6344;SDS011;3205;42.666;23.264;2024-02-15T06:18:59;12.53;;;8.37;;
6344;SDS011;3205;42.666;23.264;2024-02-15T06:21:25;17.17;;;9.07;;
6344;SDS011;3205;42.666;23.264;2024-02-15T06:23:54;16.20;;;9.03;;
6344;SDS011;3205;42.666;23.264;2024-02-15T06:26:20;14.67;;;8.10;;
6344;SDS011;3205;42.666;23.264;2024-02-15T06:28:46;16.00;;;8.03;;
6344;SDS011;3205;42.666;23.264;2024-02-15T06:31:31;22.80;;;9.23;;
6344;SDS011;3205;42.666;23.264;2024-02-15T06:34:15;14.57;;;8.57;;
6344;SDS011;3205;42.666;23.264;2024-02-15T06:37:00;19.80;;;8.57;;
6344;SDS011;3205;42.666;23.264;2024-02-15T06:39:45;19.40;;;9.33;;
6344;SDS011;3205;42.666;23.264;2024-02-15T06:42:12;16.17;;;8.87;;
6344;SDS011;3205;42.666;23.264;2024-02-15T06:44:41;16.90;;;8.67;;
6344;SDS011;3205;42.666;23.264;2024-02-15T06:47:07;12.47;;;7.63;;
6344;SDS011;3205;42.666;23.264;2024-02-15T06:49:36;17.67;;;8.73;;
6344;SDS011;3205;42.666;23.264;2024-02-15T06:52:05;15.30;;;7.60;;
6344;SDS011;3205;42.666;23.264;2024-02-15T06:54:32;16.27;;;8.73;;
6344;SDS011;3205;42.666;23.264;2024-02-15T06:57:00;16.70;;;9.03;;
6344;SDS011;3205;42.666;23.264;2024-02-15T06:59:27;17.17;;;8.50;;
6344;SDS011;3205;42.666;23.264;2024-02-15T07:01:54;15.90;;;8.70;;
6344;SDS011;3205;42.666;23.264;2024-02-15T07:04:20;13.97;;;8.83;;
6344;SDS011;3205;42.666;23.264;2024-02-15T07:06:47;18.93;;;9.20;;
6344;SDS011;3205;42.666;23.264;2024-02-15T07:09:14;14.37;;;7.90;;
6344;SDS011;3205;42.666;23.264;2024-02-15T07:11:43;11.93;;;8.23;;
6344;SDS011;3205;42.666;23.264;2024-02-15T07:14:10;11.70;;;7.83;;
6344;SDS011;3205;42.666;23.264;2024-02-15T07:16:36;16.10;;;9.10;;
6344;SDS011;3205;42.666;23.264;2024-02-15T07:19:02;12.53;;;7.87;;
6344;SDS011;3205;42.666;23.264;2024-02-15T07:21:28;13.17;;;8.27;;
6344;SDS011;3205;42.666;23.264;2024-02-15T07:23:56;9.63;;;7.27;;
6344;SDS011;3205;42.666;23.264;2024-02-15T07:26:24;17.47;;;7.63;;
6344;SDS011;3205;42.666;23.264;2024-02-15T07:28:50;14.77;;;7.37;;
6344;SDS011;3205;42.666;23.264;2024-02-15T07:31:19;11.77;;;6.63;;
6344;SDS011;3205;42.666;23.264;2024-02-15T07:33:46;13.80;;;7.50;;
6344;SDS011;3205;42.666;23.264;2024-02-15T07:36:13;11.18;;;7.03;;
6344;SDS011;3205;42.666;23.264;2024-02-15T07:38:39;14.07;;;7.40;;
6344;SDS011;3205;42.666;23.264;2024-02-15T07:41:06;9.10;;;7.10;;
6344;SDS011;3205;42.666;23.264;2024-02-15T07:43:32;14.57;;;7.13;;
6344;SDS011;3205;42.666;23.264;2024-02-15T07:45:59;13.15;;;7.63;;
6344;SDS011;3205;42.666;23.264;2024-02-15T07:48:26;12.18;;;7.35;;
6344;SDS011;3205;42.666;23.264;2024-02-15T07:50:52;9.80;;;7.15;;
6344;SDS011;3205;42.666;23.264;2024-02-15T07:53:18;10.20;;;7.00;;
6344;SDS011;3205;42.666;23.264;2024-02-15T07:55:46;8.75;;;6.95;;
6344;SDS011;3205;42.666;23.264;2024-02-15T07:58:15;9.40;;;6.35;;
6344;SDS011;3205;42.666;23.264;2024-02-15T08:00:44;8.63;;;6.63;;
6344;SDS011;3205;42.666;23.264;2024-02-15T08:03:11;8.93;;;7.93;;
6344;SDS011;3205;42.666;23.264;2024-02-15T08:05:39;7.93;;;6.68;;
6344;SDS011;3205;42.666;23.264;2024-02-15T08:08:06;7.32;;;6.63;;
6344;SDS011;3205;42.666;23.264;2024-02-15T08:10:33;8.18;;;7.38;;
6344;SDS011;3205;42.666;23.264;2024-02-15T08:12:59;8.23;;;6.95;;
6344;SDS011;3205;42.666;23.264;2024-02-15T08:15:25;11.75;;;6.93;;
6344;SDS011;3205;42.666;23.264;2024-02-15T08:17:53;7.32;;;6.63;;
6344;SDS011;3205;42.666;23.264;2024-02-15T08:20:20;8.63;;;6.65;;
6344;SDS011;3205;42.666;23.264;2024-02-15T08:22:47;8.38;;;7.05;;
6344;SDS011;3205;42.666;23.264;2024-02-15T08:25:14;9.75;;;7.07;;
6344;SDS011;3205;42.666;23.264;2024-02-15T08:27:41;11.93;;;6.95;;
6344;SDS011;3205;42.666;23.264;2024-02-15T08:30:09;12.25;;;7.07;;
6344;SDS011;3205;42.666;23.264;2024-02-15T08:32:37;8.77;;;6.78;;
6344;SDS011;3205;42.666;23.264;2024-02-15T08:35:04;14.88;;;7.50;;
6344;SDS011;3205;42.666;23.264;2024-02-15T08:37:32;12.13;;;7.45;;
6344;SDS011;3205;42.666;23.264;2024-02-15T08:40:00;13.27;;;7.97;;
6344;SDS011;3205;42.666;23.264;2024-02-15T08:42:27;10.23;;;7.30;;
6344;SDS011;3205;42.666;23.264;2024-02-15T08:44:53;7.53;;;6.82;;
6344;SDS011;3205;42.666;23.264;2024-02-15T08:47:20;7.82;;;6.53;;
6344;SDS011;3205;42.666;23.264;2024-02-15T08:49:47;8.50;;;6.72;;
6344;SDS011;3205;42.666;23.264;2024-02-15T08:52:13;9.50;;;6.70;;
6344;SDS011;3205;42.666;23.264;2024-02-15T08:54:39;11.15;;;7.05;;
6344;SDS011;3205;42.666;23.264;2024-02-15T08:57:07;10.88;;;7.65;;
6344;SDS011;3205;42.666;23.264;2024-02-15T08:59:33;8.30;;;7.22;;
6344;SDS011;3205;42.666;23.264;2024-02-15T09:01:59;9.85;;;7.00;;
6344;SDS011;3205;42.666;23.264;2024-02-15T09:04:26;7.65;;;6.70;;
6344;SDS011;3205;42.666;23.264;2024-02-15T09:06:52;9.20;;;6.95;;
6344;SDS011;3205;42.666;23.264;2024-02-15T09:09:18;8.25;;;6.43;;
6344;SDS011;3205;42.666;23.264;2024-02-15T09:11:45;17.58;;;7.15;;
6344;SDS011;3205;42.666;23.264;2024-02-15T09:14:12;10.32;;;6.53;;
6344;SDS011;3205;42.666;23.264;2024-02-15T09:16:38;6.65;;;5.72;;
6344;SDS011;3205;42.666;23.264;2024-02-15T09:19:05;7.43;;;6.72;;
6344;SDS011;3205;42.666;23.264;2024-02-15T09:21:31;12.98;;;7.70;;
6344;SDS011;3205;42.666;23.264;2024-02-15T09:23:58;9.70;;;7.78;;
6344;SDS011;3205;42.666;23.264;2024-02-15T09:26:25;8.27;;;6.78;;
6344;SDS011;3205;42.666;23.264;2024-02-15T09:28:52;9.13;;;6.50;;
6344;SDS011;3205;42.666;23.264;2024-02-15T09:31:19;8.13;;;7.18;;
6344;SDS011;3205;42.666;23.264;2024-02-15T09:33:46;9.68;;;6.97;;
6344;SDS011;3205;42.666;23.264;2024-02-15T09:36:13;11.63;;;7.13;;
6344;SDS011;3205;42.666;23.264;2024-02-15T09:38:40;9.20;;;6.57;;
6344;SDS011;3205;42.666;23.264;2024-02-15T09:41:07;9.23;;;6.55;;
6344;SDS011;3205;42.666;23.264;2024-02-15T09:43:34;7.70;;;6.20;;
6344;SDS011;3205;42.666;23.264;2024-02-15T09:46:00;7.68;;;6.47;;
6344;SDS011;3205;42.666;23.264;2024-02-15T09:48:30;9.80;;;7.38;;
6344;SDS011;3205;42.666;23.264;2024-02-15T09:50:59;8.23;;;6.82;;
6344;SDS011;3205;42.666;23.264;2024-02-15T09:53:27;7.40;;;6.60;;
6344;SDS011;3205;42.666;23.264;2024-02-15T09:55:54;10.27;;;6.68;;
6344;SDS011;3205;42.666;23.264;2024-02-15T09:58:29;11.98;;;6.35;;
6344;SDS011;3205;42.666;23.264;2024-02-15T10:00:58;9.32;;;6.95;;
6344;SDS011;3205;42.666;23.264;2024-02-15T10:03:31;8.90;;;6.13;;
6344;SDS011;3205;42.666;23.264;2024-02-15T10:05:59;7.43;;;6.50;;
6344;SDS011;3205;42.666;23.264;2024-02-15T10:08:25;9.17;;;6.17;;
6344;SDS011;3205;42.666;23.264;2024-02-15T10:11:05;9.60;;;6.50;;
6344;SDS011;3205;42.666;23.264;2024-02-15T10:13:32;10.23;;;5.93;;
6344;SDS011;3205;42.666;23.264;2024-02-15T10:15:59;11.93;;;7.47;;
6344;SDS011;3205;42.666;23.264;2024-02-15T10:18:39;10.73;;;6.67;;
6344;SDS011;3205;42.666;23.264;2024-02-15T10:21:06;10.03;;;7.03;;
6344;SDS011;3205;42.666;23.264;2024-02-15T10:23:32;13.33;;;7.03;;
6344;SDS011;3205;42.666;23.264;2024-02-15T10:25:59;13.27;;;7.03;;
6344;SDS011;3205;42.666;23.264;2024-02-15T10:28:27;11.93;;;6.83;;
6344;SDS011;3205;42.666;23.264;2024-02-15T10:30:54;14.53;;;6.53;;
6344;SDS011;3205;42.666;23.264;2024-02-15T10:33:25;9.33;;;6.40;;
6344;SDS011;3205;42.666;23.264;2024-02-15T10:35:57;12.70;;;6.97;;
6344;SDS011;3205;42.666;23.264;2024-02-15T10:38:31;9.53;;;6.47;;
6344;SDS011;3205;42.666;23.264;2024-02-15T10:41:02;9.63;;;6.03;;
6344;SDS011;3205;42.666;23.264;2024-02-15T10:43:30;12.93;;;7.30;;
6344;SDS011;3205;42.666;23.264;2024-02-15T10:45:57;14.10;;;6.80;;
6344;SDS011;3205;42.666;23.264;2024-02-15T10:48:24;12.17;;;7.17;;
6344;SDS011;3205;42.666;23.264;2024-02-15T10:50:51;8.30;;;6.80;;
6344;SDS011;3205;42.666;23.264;2024-02-15T10:53:21;14.83;;;7.60;;
6344;SDS011;3205;42.666;23.264;2024-02-15T10:55:53;11.87;;;7.97;;
6344;SDS011;3205;42.666;23.264;2024-02-15T10:58:26;13.80;;;8.50;;
6344;SDS011;3205;42.666;23.264;2024-02-15T11:00:59;22.47;;;14.63;;
6344;SDS011;3205;42.666;23.264;2024-02-15T11:03:30;12.73;;;7.63;;
6344;SDS011;3205;42.666;23.264;2024-02-15T11:06:02;9.70;;;6.83;;
6344;SDS011;3205;42.666;23.264;2024-02-15T11:08:32;9.30;;;6.67;;
6344;SDS011;3205;42.666;23.264;2024-02-15T11:10:59;11.10;;;6.83;;
6344;SDS011;3205;42.666;23.264;2024-02-15T11:13:27;11.90;;;7.07;;
6344;SDS011;3205;42.666;23.264;2024-02-15T11:15:54;9.93;;;6.83;;
6344;SDS011;3205;42.666;23.264;2024-02-15T11:21:10;8.23;;;6.07;;
6344;SDS011;3205;42.666;23.264;2024-02-15T11:23:37;10.27;;;5.73;;
6344;SDS011;3205;42.666;23.264;2024-02-15T11:26:04;7.37;;;5.27;;
6344;SDS011;3205;42.666;23.264;2024-02-15T11:28:43;9.37;;;6.23;;
6344;SDS011;3205;42.666;23.264;2024-02-15T11:37:08;9.97;;;5.50;;
6344;SDS011;3205;42.666;23.264;2024-02-15T11:39:41;8.17;;;5.80;;
6344;SDS011;3205;42.666;23.264;2024-02-15T11:42:28;9.83;;;5.27;;
6344;SDS011;3205;42.666;23.264;2024-02-15T11:45:02;18.40;;;11.77;;
6344;SDS011;3205;42.666;23.264;2024-02-15T11:47:30;8.33;;;4.87;;
6344;SDS011;3205;42.666;23.264;2024-02-15T11:49:59;6.13;;;5.10;;
6344;SDS011;3205;42.666;23.264;2024-02-15T11:52:28;7.03;;;4.70;;
6344;SDS011;3205;42.666;23.264;2024-02-15T11:54:55;7.97;;;5.30;;
6344;SDS011;3205;42.666;23.264;2024-02-15T11:57:30;12.00;;;5.67;;
6344;SDS011;3205;42.666;23.264;2024-02-15T12:00:03;8.07;;;5.90;;
6344;SDS011;3205;42.666;23.264;2024-02-15T12:03:00;6.87;;;5.10;;
6344;SDS011;3205;42.666;23.264;2024-02-15T12:05:45;6.03;;;4.77;;
6344;SDS011;3205;42.666;23.264;2024-02-15T12:08:29;8.23;;;6.00;;
6344;SDS011;3205;42.666;23.264;2024-02-15T12:11:14;9.33;;;5.20;;
6344;SDS011;3205;42.666;23.264;2024-02-15T12:17:23;11.00;;;6.13;;
6344;SDS011;3205;42.666;23.264;2024-02-15T12:20:07;7.03;;;4.97;;
6344;SDS011;3205;42.666;23.264;2024-02-15T12:22:36;6.90;;;5.73;;
6344;SDS011;3205;42.666;23.264;2024-02-15T12:25:06;6.43;;;4.63;;
6344;SDS011;3205;42.666;23.264;2024-02-15T12:27:37;6.40;;;5.00;;
6344;SDS011;3205;42.666;23.264;2024-02-15T12:30:04;15.20;;;5.67;;
6344;SDS011;3205;42.666;23.264;2024-02-15T12:32:34;9.43;;;5.83;;
6344;SDS011;3205;42.666;23.264;2024-02-15T12:35:09;9.20;;;5.40;;
6344;SDS011;3205;42.666;23.264;2024-02-15T12:37:41;6.10;;;4.83;;
6344;SDS011;3205;42.666;23.264;2024-02-15T12:40:10;8.77;;;5.60;;
6344;SDS011;3205;42.666;23.264;2024-02-15T12:42:41;9.63;;;5.70;;
6344;SDS011;3205;42.666;23.264;2024-02-15T12:45:14;8.33;;;5.20;;
6344;SDS011;3205;42.666;23.264;2024-02-15T12:47:43;7.87;;;5.30;;
6344;SDS011;3205;42.666;23.264;2024-02-15T12:50:15;6.57;;;4.97;;
6344;SDS011;3205;42.666;23.264;2024-02-15T12:52:42;6.23;;;5.10;;
6344;SDS011;3205;42.666;23.264;2024-02-15T12:55:13;5.87;;;5.07;;
6344;SDS011;3205;42.666;23.264;2024-02-15T12:57:42;8.73;;;5.33;;
6344;SDS011;3205;42.666;23.264;2024-02-15T13:00:12;6.00;;;5.37;;
6344;SDS011;3205;42.666;23.264;2024-02-15T13:02:43;7.50;;;5.70;;
6344;SDS011;3205;42.666;23.264;2024-02-15T13:05:11;8.30;;;5.80;;
6344;SDS011;3205;42.666;23.264;2024-02-15T13:07:37;7.20;;;5.70;;
6344;SDS011;3205;42.666;23.264;2024-02-15T13:10:04;9.67;;;5.13;;
6344;SDS011;3205;42.666;23.264;2024-02-15T13:12:32;6.90;;;5.37;;
6344;SDS011;3205;42.666;23.264;2024-02-15T13:15:01;7.70;;;4.83;;
6344;SDS011;3205;42.666;23.264;2024-02-15T13:17:29;9.00;;;5.73;;
6344;SDS011;3205;42.666;23.264;2024-02-15T13:19:56;7.13;;;5.37;;
6344;SDS011;3205;42.666;23.264;2024-02-15T13:22:29;9.93;;;5.47;;
6344;SDS011;3205;42.666;23.264;2024-02-15T13:24:56;8.37;;;5.70;;
6344;SDS011;3205;42.666;23.264;2024-02-15T13:27:23;6.77;;;4.63;;
6344;SDS011;3205;42.666;23.264;2024-02-15T13:29:49;9.20;;;5.27;;
6344;SDS011;3205;42.666;23.264;2024-02-15T13:32:16;5.63;;;4.90;;
6344;SDS011;3205;42.666;23.264;2024-02-15T13:34:46;7.90;;;5.67;;
6344;SDS011;3205;42.666;23.264;2024-02-15T13:37:16;7.20;;;5.00;;
6344;SDS011;3205;42.666;23.264;2024-02-15T13:39:43;9.43;;;5.27;;
6344;SDS011;3205;42.666;23.264;2024-02-15T13:42:11;8.10;;;5.73;;
6344;SDS011;3205;42.666;23.264;2024-02-15T13:44:37;12.00;;;5.43;;
6344;SDS011;3205;42.666;23.264;2024-02-15T13:47:03;10.53;;;5.50;;
6344;SDS011;3205;42.666;23.264;2024-02-15T13:49:31;7.23;;;5.13;;
6344;SDS011;3205;42.666;23.264;2024-02-15T13:51:59;10.13;;;6.07;;
6344;SDS011;3205;42.666;23.264;2024-02-15T13:54:27;8.53;;;5.47;;
6344;SDS011;3205;42.666;23.264;2024-02-15T13:56:56;6.43;;;5.00;;
6344;SDS011;3205;42.666;23.264;2024-02-15T13:59:22;5.63;;;4.37;;
6344;SDS011;3205;42.666;23.264;2024-02-15T14:01:48;8.97;;;5.30;;
6344;SDS011;3205;42.666;23.264;2024-02-15T14:04:15;6.10;;;4.93;;
6344;SDS011;3205;42.666;23.264;2024-02-15T14:06:42;10.13;;;5.00;;
6344;SDS011;3205;42.666;23.264;2024-02-15T14:09:09;9.80;;;4.90;;
6344;SDS011;3205;42.666;23.264;2024-02-15T14:11:37;8.37;;;4.73;;
6344;SDS011;3205;42.666;23.264;2024-02-15T14:14:03;7.80;;;5.00;;
6344;SDS011;3205;42.666;23.264;2024-02-15T14:16:30;5.83;;;4.77;;
6344;SDS011;3205;42.666;23.264;2024-02-15T14:18:56;7.07;;;4.90;;
6344;SDS011;3205;42.666;23.264;2024-02-15T14:21:23;8.60;;;4.57;;
6344;SDS011;3205;42.666;23.264;2024-02-15T14:23:51;10.10;;;4.67;;
6344;SDS011;3205;42.666;23.264;2024-02-15T14:26:17;10.40;;;4.60;;
6344;SDS011;3205;42.666;23.264;2024-02-15T14:28:43;6.07;;;5.03;;
6344;SDS011;3205;42.666;23.264;2024-02-15T14:31:10;11.33;;;5.20;;
6344;SDS011;3205;42.666;23.264;2024-02-15T14:33:55;9.53;;;5.33;;
6344;SDS011;3205;42.666;23.264;2024-02-15T14:36:21;4.83;;;4.33;;
6344;SDS011;3205;42.666;23.264;2024-02-15T14:38:48;5.70;;;4.40;;
6344;SDS011;3205;42.666;23.264;2024-02-15T14:41:17;9.70;;;4.57;;
6344;SDS011;3205;42.666;23.264;2024-02-15T14:43:43;7.07;;;5.20;;
6344;SDS011;3205;42.666;23.264;2024-02-15T14:46:10;10.23;;;5.33;;
6344;SDS011;3205;42.666;23.264;2024-02-15T14:48:36;9.57;;;5.17;;
6344;SDS011;3205;42.666;23.264;2024-02-15T14:51:05;8.30;;;4.80;;
6344;SDS011;3205;42.666;23.264;2024-02-15T14:53:32;14.27;;;4.67;;
6344;SDS011;3205;42.666;23.264;2024-02-15T14:55:59;8.67;;;5.67;;
6344;SDS011;3205;42.666;23.264;2024-02-15T14:58:27;12.07;;;5.27;;
6344;SDS011;3205;42.666;23.264;2024-02-15T15:00:54;8.37;;;5.80;;
6344;SDS011;3205;42.666;23.264;2024-02-15T15:03:21;8.53;;;5.43;;
6344;SDS011;3205;42.666;23.264;2024-02-15T15:05:48;11.13;;;5.23;;
6344;SDS011;3205;42.666;23.264;2024-02-15T15:08:32;12.73;;;5.07;;
6344;SDS011;3205;42.666;23.264;2024-02-15T15:11:17;5.73;;;5.10;;
6344;SDS011;3205;42.666;23.264;2024-02-15T15:14:02;8.90;;;5.20;;